»·PEaware :: SKY103 KSBP-KOAR

SKY103 :: KSBP-KOAR

FLIGHT INFORMATION

Flight Status: Arrived
Operator:
Sky High Charters
More flights by this operator :: More flights under this callsign
Pilot: Andrew C. (28419)
Aircraft: SOCATA TBM-900
(TBM9)
More flights by this aircraft type
Origin: KSBP San Luis Co Regl
United States
Destination: KOAR Marina
United States
More flights between these airports :: More routes between these airports
Route: CREPE3 PRB V248 SARDO ZURET
File this flight plan on PilotEdge
Remarks:
Altitude:
(Current/Filed)
8,000ft
Speed:
(Current/Filed)
220kts
Departed: 06-Sep-20 03:14 PM
Arrived: 06-Sep-20 03:47 PM
Distance/Time
Traveled:
102nm/0:32
Distance/Time
To Go:
Arrived

Flight Plot

Page will automatically refresh every two minutes.

Flight plan parsing failed; only flown route is shown


Map Options




Map Legend


Flown Route
Filed Route
Departure Airport
Arrival Airport
Navaid (VOR, NDB)
Fix

Horizontal Profiles

Position Reports

Time Latitude Longitude Heading Altitude Ground
Speed
06-Sep-20 14:55 35.238720 -120.639816 93 215ft 0kts
06-Sep-20 14:56 35.238720 -120.639816 93 215ft 0kts
06-Sep-20 14:57 35.238720 -120.639816 93 215ft 0kts
06-Sep-20 14:58 35.238720 -120.639816 93 215ft 0kts
06-Sep-20 14:59 35.238720 -120.639816 93 215ft 0kts
06-Sep-20 15:00 35.238720 -120.639816 93 215ft 0kts
06-Sep-20 15:01 35.238720 -120.639816 93 215ft 0kts
06-Sep-20 15:02 35.238720 -120.639816 93 215ft 0kts
06-Sep-20 15:03 35.238720 -120.639816 93 215ft 0kts
06-Sep-20 15:04 35.238720 -120.639816 93 215ft 0kts
06-Sep-20 15:05 35.238720 -120.639816 93 215ft 0kts
06-Sep-20 15:06 35.238720 -120.639816 93 215ft 0kts
06-Sep-20 15:07 35.238720 -120.639816 93 215ft 0kts
06-Sep-20 15:08 35.238720 -120.639816 93 215ft 0kts
06-Sep-20 15:09 35.237129 -120.638640 123 215ft 7kts
06-Sep-20 15:10 35.234554 -120.634179 124 215ft 19kts
06-Sep-20 15:11 35.233154 -120.632373 214 215ft 0kts
06-Sep-20 15:12 35.233154 -120.632373 214 215ft 0kts
06-Sep-20 15:13 35.237815 -120.641606 307 398ft 107kts
06-Sep-20 15:14 35.258618 -120.679113 312 2548ft 138kts
06-Sep-20 15:15 35.279773 -120.721199 306 4851ft 147kts
06-Sep-20 15:16 35.304300 -120.763530 307 7257ft 150kts
06-Sep-20 15:17 35.336312 -120.817446 307 8035ft 233kts
06-Sep-20 15:18 35.394049 -120.841404 32 8014ft 250kts
06-Sep-20 15:19 35.456925 -120.793221 33 8000ft 254kts
06-Sep-20 15:20 35.521655 -120.743445 33 8000ft 254kts
06-Sep-20 15:21 35.585378 -120.694353 33 7999ft 254kts
06-Sep-20 15:22 35.648191 -120.645868 32 7999ft 253kts
06-Sep-20 15:23 35.719055 -120.645657 343 8000ft 259kts
06-Sep-20 15:24 35.792150 -120.674847 343 7999ft 261kts
06-Sep-20 15:25 35.865408 -120.704140 343 8003ft 262kts
06-Sep-20 15:26 35.939864 -120.733979 343 8020ft 262kts
06-Sep-20 15:28 36.014529 -120.763924 343 8035ft 261kts
06-Sep-20 15:29 36.087959 -120.794800 328 8018ft 262kts
06-Sep-20 15:30 36.142821 -120.862729 315 8036ft 263kts
06-Sep-20 15:31 36.197803 -120.931745 315 8036ft 265kts
06-Sep-20 15:32 36.251323 -120.999039 315 8041ft 267kts
06-Sep-20 15:33 36.305129 -121.066844 315 8051ft 268kts
06-Sep-20 15:34 36.356508 -121.131717 315 8050ft 235kts
06-Sep-20 15:35 36.399334 -121.185873 315 8063ft 208kts
06-Sep-20 15:36 36.439513 -121.236774 315 8071ft 201kts
06-Sep-20 15:37 36.479033 -121.286930 315 7999ft 201kts
06-Sep-20 15:38 36.517268 -121.337767 305 7987ft 199kts
06-Sep-20 15:39 36.554197 -121.404514 305 4903ft 251kts
06-Sep-20 15:40 36.588280 -121.466162 305 4448ft 173kts
06-Sep-20 15:41 36.616677 -121.517578 305 3823ft 180kts
06-Sep-20 15:42 36.645738 -121.570310 305 3340ft 180kts
06-Sep-20 15:43 36.666263 -121.627857 278 2494ft 170kts
06-Sep-20 15:43 36.669903 -121.666931 280 1763ft 104kts
06-Sep-20 15:45 36.674104 -121.710375 281 996ft 104kts
06-Sep-20 15:46 36.675708 -121.746990 284 312ft 75kts
06-Sep-20 15:46 36.681550 -121.762590 221 138ft 6kts
06-Sep-20 15:48 36.678922 -121.763601 212 138ft 0kts
06-Sep-20 15:48 36.678922 -121.763601 212 138ft 0kts

Navigation Log

Ident Type
Flight plan parsing failed, navigation log unavailable